Time;durP1;ratioP1;P1;durP2;ratioP2;P2;SDS_P1;SDS_P2;PMS_P1;PMS_P2;Temp;Humidity;BMP_temperature;BMP_pressure;BME280_temperature;BME280_humidity;BME280_pressure;Samples;Min_cycle;Max_cycle;Signal;HPM_P1;HPM_P2
2022/04/10 00:00:51;;;;;;;2.17;1.13;;;;;;;14.56;34.93;92696.44;4923801;28;20038;-76
2022/04/10 00:03:16;;;;;;;4.68;2.17;;;;;;;14.74;34.83;92725.28;4917516;28;20040;-76
2022/04/10 00:05:42;;;;;;;2.20;1.10;;;;;;;14.55;34.36;92699.47;4928961;28;20043;-76
2022/04/10 00:08:07;;;;;;;3.33;1.33;;;;;;;14.63;34.34;92692.28;4920182;28;20042;-76
2022/04/10 00:10:33;;;;;;;2.22;1.33;;;;;;;14.82;34.75;92708.94;4942787;28;20027;-76
2022/04/10 00:12:58;;;;;;;2.33;1.48;;;;;;;14.68;34.54;92716.03;4924059;28;20043;-76
2022/04/10 00:15:23;;;;;;;1.63;1.20;;;;;;;14.69;34.67;92710.34;4935238;28;20035;-76
2022/04/10 00:17:49;;;;;;;2.58;1.00;;;;;;;14.72;34.76;92711.50;4927581;28;20123;-76
2022/04/10 00:20:14;;;;;;;1.98;1.25;;;;;;;14.63;34.58;92692.28;4918098;28;20218;-76
2022/04/10 00:22:42;;;;;;;2.72;1.27;;;;;;;14.66;34.96;92692.34;4920968;28;20030;-76
2022/04/10 00:25:09;;;;;;;5.30;1.38;;;;;;;14.72;35.74;92700.78;4915918;29;20106;-76
2022/04/10 00:27:34;;;;;;;5.72;2.40;;;;;;;14.44;35.47;92701.19;4926519;28;20592;-74
2022/04/10 00:30:00;;;;;;;20.80;8.30;;;;;;;14.17;34.99;92681.78;4926051;28;20090;-76
2022/04/10 00:32:27;;;;;;;6.88;3.13;;;;;;;14.28;35.29;92693.34;4921609;28;20521;-76
2022/04/10 00:34:52;;;;;;;3.20;1.40;;;;;;;14.21;35.85;92684.47;4922409;28;20028;-76
2022/04/10 00:37:17;;;;;;;1.80;1.20;;;;;;;14.38;36.20;92708.75;4926801;28;20492;-76
2022/04/10 00:39:43;;;;;;;1.98;1.20;;;;;;;14.31;36.27;92708.69;4930793;28;20078;-76
2022/04/10 00:42:08;;;;;;;2.38;1.52;;;;;;;14.34;36.30;92715.19;4920105;28;20039;-76
2022/04/10 00:44:34;;;;;;;1.52;1.30;;;;;;;14.28;36.18;92708.63;4922465;28;21181;-76
2022/04/10 00:47:00;;;;;;;3.80;1.75;;;;;;;14.18;36.92;92712.69;4931870;28;20043;-76
2022/04/10 00:49:25;;;;;;;2.03;1.35;;;;;;;14.05;36.73;92698.00;4919785;28;20442;-76
2022/04/10 00:51:53;;;;;;;5.00;1.17;;;;;;;13.99;37.05;92700.22;4930823;28;20035;-74
2022/04/10 00:54:25;;;;;;;2.45;1.45;;;;;;;13.68;37.46;92709.31;4929923;28;20054;-76
2022/04/10 00:56:55;;;;;;;1.63;1.10;;;;;;;13.29;37.49;92665.19;4937732;28;20098;-76
2022/04/10 00:59:21;;;;;;;6.20;1.70;;;;;;;13.36;37.19;92667.94;4933385;28;20130;-76
2022/04/10 01:01:47;;;;;;;4.32;1.80;;;;;;;13.53;37.54;92686.16;4914717;28;20027;-76
2022/04/10 01:04:13;;;;;;;2.30;1.67;;;;;;;13.27;37.86;92656.75;4925731;28;20027;-75
2022/04/10 01:06:40;;;;;;;3.10;1.48;;;;;;;13.42;37.84;92663.06;4926700;28;20138;-75
2022/04/10 01:09:05;;;;;;;3.70;1.30;;;;;;;13.54;37.73;92671.69;4921657;28;20463;-76
2022/04/10 01:11:33;;;;;;;3.08;1.40;;;;;;;13.48;37.59;92650.97;4929581;28;20046;-76
2022/04/10 01:13:59;;;;;;;4.55;1.10;;;;;;;13.52;37.44;92657.91;4925706;28;20042;-76
2022/04/10 01:16:33;;;;;;;5.47;1.52;;;;;;;13.54;38.02;92654.88;4926166;29;20027;-75
2022/04/10 01:19:02;;;;;;;4.20;1.48;;;;;;;13.04;37.85;92583.91;4927285;28;20569;-76
2022/04/10 01:21:28;;;;;;;1.83;0.90;;;;;;;13.29;37.93;92625.13;4926121;28;20051;-76
2022/04/10 01:23:55;;;;;;;4.28;1.85;;;;;;;13.35;37.90;92621.00;4915570;28;20142;-76
2022/04/10 01:26:26;;;;;;;4.95;1.60;;;;;;;13.47;38.02;92644.09;4923834;28;20070;-75
2022/04/10 01:29:21;;;;;;;5.75;1.38;;;;;;;13.51;37.36;92650.25;4926046;28;20094;-76
2022/04/10 01:31:47;;;;;;;3.13;1.30;;;;;;;12.94;38.35;92627.97;4922057;28;20043;-75
2022/04/10 01:34:16;;;;;;;3.08;1.42;;;;;;;13.03;38.17;92625.06;4923997;28;20462;-74
2022/04/10 01:36:43;;;;;;;4.22;1.33;;;;;;;13.13;38.33;92640.50;4943661;28;20086;-76
2022/04/10 01:39:10;;;;;;;4.25;1.77;;;;;;;13.10;38.40;92657.22;4929069;28;20039;-76
2022/04/10 01:41:35;;;;;;;7.10;1.83;;;;;;;12.88;38.82;92648.84;4929567;28;20588;-75
2022/04/10 01:44:02;;;;;;;6.32;2.17;;;;;;;12.43;39.56;92678.06;4927810;28;20118;-76
2022/04/10 01:46:30;;;;;;;6.35;2.25;;;;;;;12.27;39.53;92659.47;4920599;28;20043;-75
2022/04/10 01:48:56;;;;;;;2.47;1.92;;;;;;;12.48;39.17;92675.13;4925876;28;20036;-75
2022/04/10 01:51:27;;;;;;;7.55;1.70;;;;;;;12.48;38.79;92653.78;4924563;28;20046;-76
2022/04/10 01:53:54;;;;;;;5.95;2.00;;;;;;;12.52;39.14;92649.28;4947393;28;20124;-76
2022/04/10 01:56:20;;;;;;;2.33;1.60;;;;;;;12.77;38.61;92676.47;4922528;28;20035;-75
2022/04/10 01:58:47;;;;;;;4.82;2.38;;;;;;;12.87;38.91;92665.97;4932722;28;20019;-76
2022/04/10 02:01:15;;;;;;;3.95;1.85;;;;;;;12.97;38.93;92667.28;4928759;28;20345;-75
2022/04/10 02:03:41;;;;;;;4.63;1.60;;;;;;;12.87;38.77;92633.97;4920420;28;20450;-78
2022/04/10 02:06:09;;;;;;;4.95;2.15;;;;;;;12.97;38.82;92637.16;4923637;28;20593;-75
2022/04/10 02:08:38;;;;;;;4.13;1.90;;;;;;;12.95;38.77;92628.75;4929307;28;20036;-75
2022/04/10 02:11:14;;;;;;;1.92;1.40;;;;;;;13.03;38.34;92655.19;4922692;28;20194;-77
2022/04/10 02:13:41;;;;;;;3.65;1.88;;;;;;;12.92;38.57;92632.91;4923398;28;20379;-77
2022/04/10 02:16:10;;;;;;;2.88;1.70;;;;;;;13.13;38.75;92657.28;4927100;29;20110;-78
2022/04/10 02:18:36;;;;;;;6.25;1.65;;;;;;;13.00;39.10;92647.16;4914954;28;20049;-75
2022/04/10 02:21:02;;;;;;;4.97;2.45;;;;;;;13.10;38.37;92649.22;4929852;28;20043;-78
2022/04/10 02:23:27;;;;;;;4.88;2.00;;;;;;;13.12;38.20;92649.63;4926309;28;20062;-75
2022/04/10 02:25:54;;;;;;;2.97;1.70;;;;;;;13.09;38.67;92661.03;4933319;28;20027;-78
2022/04/10 02:28:19;;;;;;;3.05;1.95;;;;;;;13.06;38.52;92641.13;4924209;28;20057;-75
2022/04/10 02:30:44;;;;;;;3.17;2.67;;;;;;;13.00;39.52;92647.16;4925740;28;20622;-75
2022/04/10 02:33:10;;;;;;;4.53;1.95;;;;;;;12.83;38.98;92627.81;4923462;28;20042;-75
2022/04/10 02:35:35;;;;;;;5.40;1.60;;;;;;;12.85;39.78;92654.13;4920936;28;20356;-76
2022/04/10 02:38:01;;;;;;;4.30;3.15;;;;;;;12.76;39.68;92662.34;4931185;28;20147;-75
2022/04/10 02:40:26;;;;;;;5.10;2.05;;;;;;;12.67;39.32;92664.47;4922366;28;20035;-75
2022/04/10 02:42:51;;;;;;;4.18;2.17;;;;;;;12.36;39.74;92613.97;4924378;28;21056;-75
2022/04/10 02:45:17;;;;;;;2.53;2.05;;;;;;;12.80;39.04;92655.19;4923990;28;20122;-78
2022/04/10 02:47:42;;;;;;;3.40;1.70;;;;;;;12.82;39.00;92642.25;4918457;28;20031;-78
2022/04/10 02:50:08;;;;;;;3.70;1.60;;;;;;;13.02;39.42;92656.31;4916713;28;20036;-75
2022/04/10 02:52:34;;;;;;;4.25;1.67;;;;;;;13.11;38.77;92648.06;4925813;28;20039;-75
2022/04/10 02:55:00;;;;;;;2.97;1.35;;;;;;;13.30;39.10;92664.03;4921821;28;20102;-78
2022/04/10 02:57:25;;;;;;;2.22;1.85;;;;;;;13.40;39.04;92660.00;4925645;28;20039;-75
2022/04/10 02:59:50;;;;;;;4.55;1.58;;;;;;;13.45;39.58;92649.78;4918458;28;20149;-75
2022/04/10 03:02:16;;;;;;;4.10;1.63;;;;;;;13.35;40.79;92654.97;4923105;28;20051;-75
2022/04/10 03:04:42;;;;;;;2.92;1.77;;;;;;;13.35;40.46;92663.72;4924823;28;20039;-76
2022/04/10 03:07:07;;;;;;;4.50;2.17;;;;;;;12.59;41.51;92654.81;4923352;29;20566;-78
2022/04/10 03:09:33;;;;;;;6.18;1.70;;;;;;;13.03;42.08;92673.88;4925182;28;20040;-75
2022/04/10 03:11:58;;;;;;;3.35;1.52;;;;;;;12.91;41.97;92670.63;4927215;28;20126;-78
2022/04/10 03:14:23;;;;;;;6.13;2.25;;;;;;;13.02;41.84;92690.25;4921729;28;20086;-75
2022/04/10 03:16:49;;;;;;;3.65;1.80;;;;;;;12.96;42.18;92670.34;4923778;28;20501;-78
2022/04/10 03:19:14;;;;;;;4.03;1.70;;;;;;;13.09;41.92;92685.03;4928736;29;20058;-75
2022/04/10 03:21:39;;;;;;;6.68;3.00;;;;;;;13.08;42.43;92662.91;4922188;28;20046;-75
2022/04/10 03:24:05;;;;;;;6.40;1.85;;;;;;;13.30;41.78;92688.06;4922481;28;20485;-75
2022/04/10 03:26:31;;;;;;;3.20;1.73;;;;;;;13.47;41.88;92684.91;4928593;28;20035;-77
2022/04/10 03:28:56;;;;;;;2.55;1.20;;;;;;;13.42;41.77;92657.75;4921559;28;20043;-76
2022/04/10 03:31:23;;;;;;;2.97;1.60;;;;;;;13.59;41.96;92674.06;4918723;29;20027;-75
2022/04/10 03:33:51;;;;;;;3.70;1.85;;;;;;;13.13;41.88;92656.50;4926395;28;20040;-76
2022/04/10 03:36:17;;;;;;;3.65;2.75;;;;;;;13.29;42.21;92691.88;4921300;28;20720;-76
2022/04/10 03:38:42;;;;;;;3.40;1.80;;;;;;;12.54;43.52;92694.28;4923936;28;20510;-76
2022/04/10 03:41:08;;;;;;;5.63;2.55;;;;;;;10.92;44.68;92676.16;4927029;28;20426;-75
2022/04/10 03:43:33;;;;;;;8.52;3.05;;;;;;;11.79;43.63;92659.97;4922677;29;20035;-75
2022/04/10 03:46:02;;;;;;;8.40;2.70;;;;;;;12.32;43.68;92674.44;4922579;28;20035;-76
2022/04/10 03:48:28;;;;;;;4.93;3.25;;;;;;;11.73;43.13;92672.06;4924370;28;20318;-76
2022/04/10 03:50:54;;;;;;;5.07;3.30;;;;;;;11.75;43.15;92673.22;4918200;28;20086;-76
2022/04/10 03:53:19;;;;;;;10.90;4.10;;;;;;;12.38;42.09;92715.69;4929118;28;20031;-75
2022/04/10 03:55:45;;;;;;;6.40;2.58;;;;;;;12.27;42.31;92696.03;4925565;28;20396;-75
2022/04/10 03:58:10;;;;;;;9.00;3.25;;;;;;;11.92;43.98;92715.50;4918515;28;20058;-76
2022/04/10 04:00:36;;;;;;;5.43;2.85;;;;;;;12.36;43.72;92699.28;4926802;28;20035;-75
2022/04/10 04:03:01;;;;;;;5.22;2.65;;;;;;;12.47;43.27;92702.91;4921332;28;20039;-76
2022/04/10 04:05:27;;;;;;;3.58;2.28;;;;;;;12.64;43.20;92694.53;4934939;28;20477;-76
2022/04/10 04:07:52;;;;;;;11.45;5.25;;;;;;;12.83;42.48;92713.19;4918794;28;20087;-76
2022/04/10 04:10:18;;;;;;;6.00;3.92;;;;;;;12.95;42.40;92716.81;4928033;29;20035;-76
2022/04/10 04:12:43;;;;;;;5.22;2.90;;;;;;;12.78;42.98;92708.13;4928907;28;20050;-76
2022/04/10 04:15:11;;;;;;;7.55;3.10;;;;;;;12.82;43.27;92716.97;4933396;28;20097;-76
2022/04/10 04:17:40;;;;;;;4.15;2.58;;;;;;;13.02;42.67;92732.94;4924253;28;21068;-76
2022/04/10 04:20:06;;;;;;;6.88;3.70;;;;;;;13.09;43.22;92736.53;4925052;28;20039;-76
2022/04/10 04:22:33;;;;;;;5.65;2.40;;;;;;;12.98;42.70;92713.44;4925894;29;20028;-75
2022/04/10 04:24:59;;;;;;;4.57;2.80;;;;;;;13.12;42.59;92751.81;4922344;28;20147;-76
2022/04/10 04:27:24;;;;;;;7.15;3.60;;;;;;;13.04;42.83;92744.81;4932656;28;20049;-76
2022/04/10 04:29:50;;;;;;;7.78;3.38;;;;;;;12.87;43.31;92740.69;4924998;28;20131;-76
2022/04/10 04:32:15;;;;;;;7.68;4.15;;;;;;;12.67;44.29;92739.16;4926592;28;20522;-75
2022/04/10 04:34:40;;;;;;;6.97;4.97;;;;;;;12.38;45.32;92771.66;4920550;28;20137;-75
2022/04/10 04:37:07;;;;;;;9.20;5.07;;;;;;;11.77;46.30;92734.16;4929658;28;20045;-75
2022/04/10 04:39:33;;;;;;;6.78;5.50;;;;;;;11.81;46.80;92780.28;4923070;28;20039;-75
2022/04/10 04:41:58;;;;;;;7.28;5.45;;;;;;;11.76;46.82;92757.34;4924264;28;20100;-75
2022/04/10 04:44:23;;;;;;;9.40;6.95;;;;;;;11.63;47.75;92797.75;4921244;28;20127;-76
2022/04/10 04:46:49;;;;;;;13.15;8.05;;;;;;;11.51;48.24;92794.03;4924045;28;20833;-75
2022/04/10 04:49:14;;;;;;;13.38;7.88;;;;;;;11.20;48.76;92793.22;4930016;29;20031;-76
2022/04/10 04:51:39;;;;;;;13.85;8.30;;;;;;;10.86;49.46;92818.50;4925878;28;20046;-75
2022/04/10 04:54:08;;;;;;;13.05;8.07;;;;;;;10.73;50.21;92818.56;4932121;28;20043;-76
2022/04/10 04:56:35;;;;;;;13.95;9.02;;;;;;;10.40;51.14;92819.84;4923211;28;20035;-75
2022/04/10 04:59:01;;;;;;;16.88;10.10;;;;;;;9.71;52.69;92815.44;4924679;28;20047;-75
2022/04/10 05:01:26;;;;;;;16.38;9.05;;;;;;;9.73;53.23;92829.16;4922354;29;20039;-75
2022/04/10 05:03:52;;;;;;;26.23;9.57;;;;;;;9.52;53.53;92817.84;4928318;28;20215;-75
2022/04/10 05:06:17;;;;;;;16.42;9.30;;;;;;;9.39;54.31;92799.25;4940267;28;20045;-76
2022/04/10 05:08:46;;;;;;;26.60;10.35;;;;;;;9.25;54.81;92829.84;4927596;28;20394;-75
2022/04/10 05:11:12;;;;;;;20.63;10.20;;;;;;;8.41;57.04;92823.81;4926683;28;21517;-76
2022/04/10 05:13:39;;;;;;;18.27;9.43;;;;;;;8.31;57.50;92810.22;4925260;29;20031;-76
2022/04/10 05:16:05;;;;;;;17.05;10.70;;;;;;;8.01;59.08;92810.25;4927527;28;20513;-75
2022/04/10 05:18:30;;;;;;;22.23;10.98;;;;;;;7.96;59.84;92807.00;4928244;28;20073;-75
2022/04/10 05:20:57;;;;;;;18.13;10.25;;;;;;;8.00;60.12;92802.59;4927474;28;20055;-75
2022/04/10 05:23:22;;;;;;;20.27;10.88;;;;;;;8.15;60.38;92817.94;4929003;28;20512;-75
2022/04/10 05:25:50;;;;;;;21.75;10.02;;;;;;;8.20;60.57;92804.50;4928168;28;20496;-74
2022/04/10 05:28:18;;;;;;;20.02;10.88;;;;;;;8.22;60.78;92826.13;4926884;29;20503;-76
2022/04/10 05:30:44;;;;;;;18.63;10.82;;;;;;;7.85;61.59;92817.16;4930471;28;20035;-76
2022/04/10 05:33:10;;;;;;;22.92;10.68;;;;;;;7.66;62.21;92791.09;4928769;28;20102;-76
2022/04/10 05:35:36;;;;;;;19.50;10.00;;;;;;;7.93;61.91;92826.16;4923776;28;20500;-75
2022/04/10 05:38:03;;;;;;;17.27;9.07;;;;;;;7.84;62.19;92817.47;4931912;28;20032;-75
2022/04/10 05:40:28;;;;;;;19.48;9.80;;;;;;;7.68;62.33;92833.88;4926955;28;20120;-74
2022/04/10 05:42:54;;;;;;;20.20;8.63;;;;;;;7.37;63.48;92811.44;4927313;28;20031;-76
2022/04/10 05:45:19;;;;;;;16.77;8.93;;;;;;;7.39;63.90;92828.53;4925361;28;20047;-75
2022/04/10 05:47:45;;;;;;;19.27;11.32;;;;;;;7.05;64.74;92839.97;4928534;28;20486;-75
2022/04/10 05:50:12;;;;;;;18.85;10.70;;;;;;;7.28;64.28;92843.22;4940921;28;20028;-76
2022/04/10 05:52:43;;;;;;;18.83;9.55;;;;;;;7.24;64.10;92845.69;4928940;28;20071;-75
2022/04/10 05:55:10;;;;;;;15.98;9.13;;;;;;;6.59;65.38;92808.19;4925504;29;20043;-77
2022/04/10 05:57:36;;;;;;;17.23;9.07;;;;;;;6.86;65.36;92856.16;4925949;28;20154;-74
2022/04/10 06:00:07;;;;;;;19.48;10.57;;;;;;;6.81;66.08;92869.53;4930162;28;20077;-77
2022/04/10 06:02:33;;;;;;;17.75;10.43;;;;;;;6.75;66.17;92864.75;4935618;28;20584;-75
2022/04/10 06:04:59;;;;;;;27.13;12.10;;;;;;;6.64;66.74;92864.28;4926007;28;20094;-75
2022/04/10 06:07:28;;;;;;;20.05;9.32;;;;;;;6.80;66.31;92873.28;4928946;28;20032;-78
2022/04/10 06:09:54;;;;;;;18.55;9.32;;;;;;;6.79;66.57;92892.88;4937085;28;20090;-77
2022/04/10 06:12:19;;;;;;;18.25;8.93;;;;;;;6.86;65.87;92887.88;4927973;28;20036;-77
2022/04/10 06:14:44;;;;;;;15.52;8.60;;;;;;;6.76;65.59;92893.50;4923289;28;20067;-77
2022/04/10 06:17:10;;;;;;;17.15;8.68;;;;;;;6.75;65.04;92891.94;4925773;28;20043;-77
2022/04/10 06:19:35;;;;;;;20.90;10.65;;;;;;;6.50;65.24;92858.38;4924927;28;20586;-77
2022/04/10 06:22:01;;;;;;;17.08;8.43;;;;;;;6.26;65.60;92844.84;4924591;28;20047;-76
2022/04/10 06:24:29;;;;;;;14.07;8.82;;;;;;;6.56;65.21;92890.66;4928565;28;20594;-77
2022/04/10 06:26:54;;;;;;;12.32;7.07;;;;;;;6.55;65.48;92889.91;4940915;28;21233;-77
2022/04/10 06:29:20;;;;;;;15.02;8.18;;;;;;;6.68;65.21;92896.91;4927579;28;20056;-77
2022/04/10 06:31:46;;;;;;;15.27;8.00;;;;;;;6.71;64.97;92858.50;4925476;28;20500;-77
2022/04/10 06:34:12;;;;;;;17.92;7.60;;;;;;;6.67;64.50;92866.28;4930731;28;20027;-77
2022/04/10 06:36:38;;;;;;;16.10;7.40;;;;;;;6.97;64.37;92898.16;4921926;28;20087;-77
2022/04/10 06:39:04;;;;;;;11.60;6.65;;;;;;;6.47;64.47;92864.25;4929105;28;20078;-77
2022/04/10 06:41:30;;;;;;;10.57;6.07;;;;;;;6.57;64.72;92874.53;4926939;28;20590;-77
2022/04/10 06:43:55;;;;;;;17.27;6.43;;;;;;;6.31;65.63;92866.56;4926316;28;20023;-77
2022/04/10 06:46:21;;;;;;;8.85;5.03;;;;;;;6.17;65.93;92880.97;4919523;28;20482;-77
2022/04/10 06:48:47;;;;;;;9.98;5.88;;;;;;;6.07;66.34;92878.63;4929609;28;20041;-77
2022/04/10 06:51:12;;;;;;;7.28;4.78;;;;;;;5.89;66.69;92854.81;4919498;28;20040;-77
2022/04/10 06:53:37;;;;;;;12.23;5.57;;;;;;;6.19;66.46;92886.75;4927274;28;20051;-77
2022/04/10 06:56:03;;;;;;;7.72;4.63;;;;;;;6.13;66.21;92869.47;4925007;28;20035;-77
2022/04/10 06:58:28;;;;;;;8.73;5.40;;;;;;;6.09;66.28;92879.09;4927072;28;20399;-76
2022/04/10 07:00:54;;;;;;;6.35;4.40;;;;;;;6.06;65.83;92892.91;4926380;28;20417;-77
2022/04/10 07:03:19;;;;;;;9.35;4.38;;;;;;;5.82;67.56;92890.66;4926128;28;20046;-76
2022/04/10 07:05:48;;;;;;;8.50;4.13;;;;;;;5.88;67.35;92892.06;4927847;28;20509;-76
2022/04/10 07:08:14;;;;;;;8.60;4.53;;;;;;;5.58;67.09;92880.44;4929604;28;20047;-77
2022/04/10 07:10:39;;;;;;;6.35;3.60;;;;;;;5.65;67.38;92880.81;4925593;28;20043;-77
2022/04/10 07:13:05;;;;;;;7.57;4.45;;;;;;;5.72;67.76;92889.06;4928360;29;20031;-77
2022/04/10 07:15:30;;;;;;;14.07;5.25;;;;;;;5.86;68.09;92897.66;4920665;28;20031;-77
2022/04/10 07:17:56;;;;;;;5.97;3.90;;;;;;;5.89;67.21;92896.25;4924060;28;20519;-76
2022/04/10 07:20:23;;;;;;;6.45;3.78;;;;;;;5.99;66.75;92896.75;4926920;28;20070;-77
2022/04/10 07:25:32;;;;;;;6.60;3.33;;;;;;;6.21;65.09;92889.88;4927949;29;20129;-76
2022/04/10 07:27:57;;;;;;;4.32;2.80;;;;;;;6.36;64.84;92887.53;4926748;28;20043;-77
2022/04/10 07:30:23;;;;;;;4.70;3.15;;;;;;;6.40;64.11;92883.22;4938551;28;20502;-77
2022/04/10 07:32:56;;;;;;;4.38;2.50;;;;;;;6.45;63.15;92900.78;4923772;28;20059;-77
2022/04/10 07:35:23;;;;;;;4.75;2.50;;;;;;;6.43;62.12;92905.59;4929806;28;20050;-77
2022/04/10 07:37:49;;;;;;;3.05;2.30;;;;;;;6.43;62.72;92913.50;4926439;28;20035;-77
2022/04/10 07:40:15;;;;;;;3.25;2.30;;;;;;;6.47;62.14;92911.81;4925698;29;20038;-77
2022/04/10 07:42:45;;;;;;;2.90;2.05;;;;;;;6.38;62.21;92905.72;4925685;28;20039;-75
2022/04/10 07:48:00;;;;;;;4.93;2.40;;;;;;;6.02;63.53;92904.06;4888439;29;20461;-77
2022/04/10 07:50:26;;;;;;;2.60;1.98;;;;;;;6.14;62.94;92916.69;4928367;28;20382;-77
2022/04/10 07:52:52;;;;;;;3.40;2.22;;;;;;;6.16;62.10;92903.22;4933301;28;20217;-77
2022/04/10 07:55:18;;;;;;;2.55;1.58;;;;;;;6.08;62.30;92909.19;4932239;29;20043;-77
2022/04/10 07:57:43;;;;;;;3.03;1.85;;;;;;;6.09;63.04;92906.25;4923598;28;20042;-76
2022/04/10 08:00:09;;;;;;;2.80;1.88;;;;;;;5.98;62.60;92902.34;4928628;28;20050;-77
2022/04/10 08:02:36;;;;;;;1.65;1.40;;;;;;;5.71;62.85;92921.81;4928915;28;20438;-77
2022/04/10 08:05:03;;;;;;;3.97;2.03;;;;;;;5.74;64.45;92921.19;4927366;28;20341;-77
2022/04/10 08:07:28;;;;;;;3.22;2.05;;;;;;;5.90;64.62;92918.94;4925939;28;20497;-78
2022/04/10 08:09:54;;;;;;;7.82;3.00;;;;;;;5.83;64.13;92903.53;4927763;28;20069;-78
2022/04/10 08:12:19;;;;;;;3.10;1.98;;;;;;;5.73;63.71;92924.91;4924580;28;20077;-79
2022/04/10 08:14:44;;;;;;;3.22;2.00;;;;;;;5.79;63.62;92923.69;4911551;28;20038;-79
2022/04/10 08:17:11;;;;;;;2.67;1.50;;;;;;;5.80;62.87;92922.63;4926891;28;20043;-78
2022/04/10 08:19:38;;;;;;;3.05;1.80;;;;;;;5.59;62.57;92892.56;4938006;28;20050;-78
2022/04/10 08:22:03;;;;;;;2.25;1.52;;;;;;;5.57;61.55;92900.03;4925138;28;20039;-76
2022/04/10 08:24:29;;;;;;;5.78;1.85;;;;;;;5.64;61.62;92916.16;4924378;28;21169;-78
2022/04/10 08:26:54;;;;;;;1.30;1.17;;;;;;;5.64;61.74;92921.44;4923094;28;21059;-78
2022/04/10 08:29:19;;;;;;;1.88;1.42;;;;;;;5.63;61.12;92919.88;4923026;28;20449;-76
2022/04/10 08:31:45;;;;;;;2.45;1.48;;;;;;;5.70;60.97;92920.25;4923322;28;20027;-78
2022/04/10 08:34:10;;;;;;;2.13;1.50;;;;;;;5.78;60.85;92943.25;4938677;28;20475;-77
2022/04/10 08:36:35;;;;;;;3.45;1.48;;;;;;;5.84;60.37;92946.53;4923016;28;20035;-79
2022/04/10 08:39:01;;;;;;;1.75;1.10;;;;;;;5.71;59.84;92950.81;4923527;28;20040;-78
2022/04/10 08:41:31;;;;;;;1.65;1.40;;;;;;;5.76;59.80;92963.09;4923165;28;20411;-79
2022/04/10 08:44:00;;;;;;;1.33;1.23;;;;;;;5.54;60.02;92945.44;4937744;28;20027;-79
2022/04/10 08:46:26;;;;;;;1.15;0.98;;;;;;;5.54;60.18;92972.59;4923862;28;20038;-77
2022/04/10 08:48:55;;;;;;;2.53;1.38;;;;;;;5.30;60.64;92958.16;4920280;28;20066;-78
2022/04/10 08:51:23;;;;;;;2.38;1.23;;;;;;;5.07;61.45;92975.84;4922332;28;20048;-77
2022/04/10 08:53:50;;;;;;;1.27;1.00;;;;;;;4.64;63.87;92947.31;4929248;28;20402;-79
2022/04/10 08:56:15;;;;;;;0.80;0.80;;;;;;;4.52;64.51;92938.34;4918769;28;20094;-78
2022/04/10 08:58:40;;;;;;;1.30;1.20;;;;;;;4.67;65.23;92994.09;4927195;28;20606;-77
2022/04/10 09:01:11;;;;;;;1.27;1.17;;;;;;;4.63;66.09;92987.09;4927208;29;20362;-78
2022/04/10 09:03:37;;;;;;;3.47;1.33;;;;;;;4.51;66.14;93000.75;4930292;28;20035;-78
2022/04/10 09:06:10;;;;;;;0.95;0.85;;;;;;;4.47;66.76;92989.25;4927429;28;20598;-78
2022/04/10 09:08:36;;;;;;;0.93;0.90;;;;;;;4.30;66.59;92985.66;4926488;28;20031;-78
2022/04/10 09:11:04;;;;;;;1.38;0.80;;;;;;;4.10;66.30;92990.22;4922756;28;20043;-78
2022/04/10 09:13:35;;;;;;;0.80;0.80;;;;;;;4.10;67.70;93011.28;4927566;29;20031;-77
2022/04/10 09:16:08;;;;;;;0.80;0.80;;;;;;;3.96;67.53;93010.50;4923381;28;20051;-77
2022/04/10 09:18:52;;;;;;;1.80;0.90;;;;;;;3.77;67.46;93009.78;4929980;28;20043;-78
2022/04/10 09:21:20;;;;;;;0.73;0.73;;;;;;;3.82;67.90;93007.03;4924029;28;20091;-78
2022/04/10 09:24:12;;;;;;;4.47;1.10;;;;;;;3.66;68.85;93006.53;4923123;28;20106;-77
2022/04/10 09:26:48;;;;;;;1.80;1.17;;;;;;;4.07;69.19;93011.84;4919962;28;20058;-75
2022/04/10 09:29:16;;;;;;;0.80;0.80;;;;;;;4.05;68.58;93015.84;4922930;28;20864;-77
2022/04/10 09:31:48;;;;;;;0.88;0.80;;;;;;;3.93;67.49;93026.84;4924693;28;20035;-78
2022/04/10 09:34:17;;;;;;;0.70;0.70;;;;;;;3.97;67.57;93022.56;4940837;28;20027;-78
2022/04/10 09:36:48;;;;;;;0.63;0.63;;;;;;;3.69;67.72;92986.75;4920430;28;20402;-78
2022/04/10 09:39:33;;;;;;;0.70;0.70;;;;;;;4.09;67.55;93025.50;4937666;28;20068;-77
2022/04/10 09:42:07;;;;;;;0.70;0.70;;;;;;;3.94;67.17;93017.09;4922982;28;20041;-78
2022/04/10 09:44:37;;;;;;;0.60;0.60;;;;;;;4.01;66.95;93025.41;4919773;28;21176;-78
2022/04/10 09:47:07;;;;;;;1.02;0.90;;;;;;;3.98;67.22;93032.00;4927617;28;20054;-78
2022/04/10 09:49:37;;;;;;;0.60;0.60;;;;;;;4.12;67.56;93014.38;4924931;29;20043;-78
2022/04/10 09:52:07;;;;;;;1.13;0.77;;;;;;;4.09;67.73;93017.59;4914674;28;20598;-75
2022/04/10 09:54:43;;;;;;;0.63;0.63;;;;;;;4.28;67.36;93022.78;4912328;28;20169;-76
2022/04/10 09:57:20;;;;;;;1.15;0.80;;;;;;;4.36;66.63;93023.97;4926334;28;20039;-75
2022/04/10 09:59:48;;;;;;;0.73;0.70;;;;;;;4.19;66.84;93020.06;4933700;28;20673;-77
2022/04/10 10:02:15;;;;;;;1.17;0.70;;;;;;;4.23;67.89;93025.50;4940914;28;20126;-76
2022/04/10 10:04:43;;;;;;;0.95;0.80;;;;;;;4.20;67.88;93005.81;4926933;28;20020;-76
2022/04/10 10:07:11;;;;;;;3.30;0.82;;;;;;;4.22;67.32;93014.19;4927700;29;20411;-76
2022/04/10 10:09:37;;;;;;;2.75;0.80;;;;;;;4.32;67.07;93023.00;4920969;28;20503;-77
2022/04/10 10:12:04;;;;;;;0.80;0.80;;;;;;;4.34;67.39;93012.97;4928137;28;20374;-75
2022/04/10 10:14:31;;;;;;;0.85;0.85;;;;;;;4.22;67.16;93014.19;4922349;28;20030;-76
2022/04/10 10:16:58;;;;;;;1.17;1.05;;;;;;;4.05;67.61;93014.00;4941599;28;20035;-75
2022/04/10 10:19:25;;;;;;;0.70;0.70;;;;;;;4.05;67.95;93015.84;4923992;29;20428;-73
2022/04/10 10:21:52;;;;;;;1.55;0.98;;;;;;;3.92;67.65;93014.75;4923422;28;20499;-76
2022/04/10 10:24:20;;;;;;;0.60;0.60;;;;;;;3.77;67.37;92986.13;4929462;28;20066;-76
2022/04/10 10:26:59;;;;;;;1.77;0.88;;;;;;;3.75;66.90;92986.41;4917854;28;20039;-76
2022/04/10 10:29:25;;;;;;;0.85;0.85;;;;;;;3.77;68.45;93007.91;4939338;28;20035;-76
2022/04/10 10:32:19;;;;;;;0.73;0.70;;;;;;;3.54;67.58;93005.44;4938841;28;20042;-76
2022/04/10 10:34:50;;;;;;;0.80;0.80;;;;;;;3.66;68.20;92980.25;4925450;28;20139;-77
2022/04/10 10:37:16;;;;;;;0.60;0.60;;;;;;;3.73;67.08;92971.97;4923576;28;20031;-75
2022/04/10 10:39:46;;;;;;;0.82;0.80;;;;;;;4.00;68.00;92998.31;4927317;28;20133;-77
2022/04/10 10:42:12;;;;;;;0.60;0.60;;;;;;;4.09;66.80;93001.03;4925176;28;20067;-75
2022/04/10 10:44:38;;;;;;;0.70;0.70;;;;;;;3.96;67.25;92994.72;4916786;28;20040;-77
2022/04/10 10:47:04;;;;;;;0.80;0.80;;;;;;;3.64;68.10;92986.84;4941500;28;20042;-76
2022/04/10 10:49:44;;;;;;;0.73;0.73;;;;;;;3.79;67.98;92982.13;4927033;29;20031;-76
2022/04/10 10:52:10;;;;;;;0.70;0.70;;;;;;;3.64;67.74;92984.22;4923173;29;20047;-76
2022/04/10 10:54:45;;;;;;;0.60;0.60;;;;;;;3.78;68.11;92987.66;4924527;28;20081;-76
2022/04/10 10:57:25;;;;;;;0.80;0.80;;;;;;;3.90;68.10;92982.72;4926780;28;20473;-77
2022/04/10 10:59:52;;;;;;;0.70;0.70;;;;;;;3.90;67.61;92966.94;4923580;28;20554;-75
2022/04/10 11:02:20;;;;;;;1.70;1.08;;;;;;;3.63;67.51;92951.88;4926433;28;20102;-76
2022/04/10 11:04:46;;;;;;;0.90;0.90;;;;;;;3.62;68.31;92981.91;4930959;28;20106;-77
2022/04/10 11:07:18;;;;;;;0.80;0.80;;;;;;;3.70;69.12;92975.19;4942075;28;20038;-75
2022/04/10 11:10:06;;;;;;;1.30;1.20;;;;;;;3.60;68.60;92964.84;4935261;28;20175;-78
2022/04/10 11:12:48;;;;;;;0.80;0.80;;;;;;;3.61;67.80;92971.66;4929154;28;21003;-72
2022/04/10 11:15:22;;;;;;;1.88;1.00;;;;;;;3.53;68.67;92953.91;4924993;28;20051;-77
2022/04/10 11:17:50;;;;;;;0.98;0.98;;;;;;;3.57;68.42;92954.91;4917881;28;20066;-76
2022/04/10 11:20:19;;;;;;;3.75;1.80;;;;;;;3.76;69.72;92968.78;4929024;28;20050;-77
2022/04/10 11:22:48;;;;;;;2.15;1.40;;;;;;;3.80;69.47;92972.38;4931341;28;20038;-73
2022/04/10 11:25:18;;;;;;;1.90;1.10;;;;;;;3.63;69.73;92951.09;4930637;29;20048;-76
2022/04/10 11:27:55;;;;;;;1.48;1.02;;;;;;;3.51;68.36;92979.72;4922217;28;20047;-73
2022/04/10 11:30:28;;;;;;;1.00;1.00;;;;;;;3.36;68.77;92965.78;4945992;28;20036;-76
2022/04/10 11:32:57;;;;;;;0.93;0.93;;;;;;;3.35;69.56;92968.69;4936874;28;20035;-77
2022/04/10 11:35:29;;;;;;;1.02;0.70;;;;;;;3.37;68.44;92977.84;4922598;28;20532;-76
2022/04/10 11:37:57;;;;;;;0.95;0.85;;;;;;;3.39;68.96;92978.31;4932486;28;20042;-77
2022/04/10 11:40:29;;;;;;;0.88;0.85;;;;;;;3.46;69.15;92967.44;4916712;29;20038;-77
2022/04/10 11:42:57;;;;;;;1.17;1.08;;;;;;;3.39;69.51;92967.81;4931008;28;20626;-77